Decoded Metar for KOSU (COLUMBUS/ST UNIV in OH, USA) (IATA:OSU) | Meteo·Mobile Aviation Weather
aviador You're here:

KOSU Decoded Metar

COLUMBUS/ST UNIV in OH, USA
Report Time2018-11-19 08:53:00
UTC Time2018-11-19 09:36:51
Flight Rules ifr IFR
Wind020° at 05 kt
W.Decomp.*RWY 05: 4.5 kt HW 2.1 kt LCW
RWY 32: 2.1 kt HW 4.5 kt RCW
RWY 09: 2.1 kt HW 4.5 kt LCW
W.Rank020° ranks 23
Current wind is below 020° avg. (6.5)
Visibility4828 m
Phenomena:Rain
Mist
Clouds:Overcast 005 Hf
Expected CloudBase > 400 ft AGL from Temp-Dew spread
Ceiling500 ft
Temp03°C (ISA -10)
Dew Point02°C (93% RH)
AAT-0.5°C
QNH1020 hPa
Density Alt-453 ft
Elevation919 ft
Report Wrong Elevation
Raw Report
KOSU 190853Z AUTO 02005KT 3SM RA BR OVC005 03/02 A3011 RMK AO2
UPB26E28 SLP203 P0002 60002 T00280022 58006=

Extra information for KOSU:More info

Metar Taf Metar & Taf Last 4 Metars F.Rules Stats Wind Profile Meteogram Temp Stats Airport Information Weather charts Add Link Nearby VenuesMetar ALERT Operation Metar Decoded Social comments

AIRNAV info for KOSU